createdAt,value
2022-09-28T00:01:26.013Z,98245.44
2022-09-28T00:03:58.345Z,98243.81
2022-09-28T00:06:30.434Z,98246.56
2022-09-28T00:08:58.585Z,98234.91
2022-09-28T00:11:28.361Z,98241.09
2022-09-28T00:14:03.783Z,98233.13
2022-09-28T00:16:37.974Z,98234.22
2022-09-28T00:19:06.725Z,98241.16
2022-09-28T00:21:39.243Z,98241.53
2022-09-28T00:24:22.951Z,98241.22
2022-09-28T00:26:56.883Z,98232.56
2022-09-28T00:29:37.053Z,98237.72
2022-09-28T00:32:13.447Z,98234.03
2022-09-28T00:34:46.143Z,98223.06
2022-09-28T00:37:15.290Z,98228.94
2022-09-28T00:39:44.103Z,98235.88
2022-09-28T00:42:21.266Z,98220.38
2022-09-28T00:44:56.050Z,98216.44
2022-09-28T00:47:51.044Z,98226.94
2022-09-28T00:50:36.815Z,98221.38
2022-09-28T00:53:18.518Z,98229.47
2022-09-28T00:56:13.527Z,98231.84
2022-09-28T00:58:48.433Z,98241.22
2022-09-28T01:01:16.826Z,98239.88
2022-09-28T01:03:48.125Z,98233.78
2022-09-28T01:06:27.719Z,98237.69
2022-09-28T01:09:05.075Z,98234.25
2022-09-28T01:11:36.345Z,98230.72
2022-09-28T01:14:13.589Z,98246.66
2022-09-28T01:17:11.913Z,98242.34
2022-09-28T01:20:05.697Z,98236.00
2022-09-28T01:22:54.486Z,98250.59
2022-09-28T01:25:52.519Z,98254.03
2022-09-28T01:28:27.259Z,98249.44
2022-09-28T01:31:27.196Z,98263.31
2022-09-28T01:34:06.001Z,98264.50
2022-09-28T01:36:56.853Z,98260.94
2022-09-28T01:39:36.457Z,98263.84
2022-09-28T01:42:21.714Z,98268.50
2022-09-28T01:44:53.387Z,98264.09
2022-09-28T01:47:24.527Z,98267.50
2022-09-28T01:50:15.262Z,98275.78
2022-09-28T01:53:11.213Z,98285.78
2022-09-28T01:55:50.306Z,98273.84
2022-09-28T01:59:04.078Z,98276.75
2022-09-28T02:01:58.800Z,98278.47
2022-09-28T02:04:51.621Z,98277.66
2022-09-28T02:07:38.698Z,98284.81
2022-09-28T02:10:23.362Z,98287.72
2022-09-28T02:12:59.542Z,98293.59
2022-09-28T02:16:10.041Z,98299.44
2022-09-28T02:18:37.805Z,98292.81
2022-09-28T02:21:17.581Z,98298.94
2022-09-28T02:23:58.413Z,98291.13
2022-09-28T02:26:38.094Z,98305.75
2022-09-28T02:29:05.790Z,98294.44
2022-09-28T02:31:33.542Z,98292.22
2022-09-28T02:34:01.363Z,98294.31
2022-09-28T02:36:30.626Z,98294.06
2022-09-28T02:38:59.207Z,98300.06
2022-09-28T02:42:03.298Z,98298.25
2022-09-28T02:44:54.577Z,98297.84
2022-09-28T02:48:08.849Z,98296.16
2022-09-28T02:51:03.232Z,98300.06
2022-09-28T02:53:57.312Z,98306.25
2022-09-28T02:57:20.761Z,98306.41
2022-09-28T03:00:20.445Z,98318.44
2022-09-28T03:03:20.578Z,98320.03
2022-09-28T03:06:30.796Z,98321.13
2022-09-28T03:09:17.666Z,98329.19
2022-09-28T03:11:59.498Z,98316.59
2022-09-28T03:14:27.965Z,98315.50
2022-09-28T03:16:56.482Z,98309.56
2022-09-28T03:19:30.752Z,98307.25
2022-09-28T03:21:59.288Z,98302.22
2022-09-28T03:24:27.998Z,98310.66
2022-09-28T03:26:55.692Z,98312.38
2022-09-28T03:29:24.257Z,98308.22
2022-09-28T03:31:51.880Z,98315.66
2022-09-28T03:34:20.382Z,98318.81
2022-09-28T03:36:48.011Z,98319.19
2022-09-28T03:39:15.680Z,98330.75
2022-09-28T03:41:43.475Z,98345.00
2022-09-28T03:44:11.140Z,98338.06
2022-09-28T03:46:38.791Z,98351.47
2022-09-28T03:49:06.410Z,98352.09
2022-09-28T03:51:34.048Z,98335.38
2022-09-28T03:54:01.975Z,98338.41
2022-09-28T03:56:31.488Z,98329.78
2022-09-28T03:58:59.121Z,98330.38
2022-09-28T04:01:26.963Z,98322.50
2022-09-28T04:03:58.636Z,98334.16
2022-09-28T04:06:26.863Z,98349.13
2022-09-28T04:08:55.044Z,98333.81
2022-09-28T04:11:22.677Z,98335.63
2022-09-28T04:13:50.900Z,98339.63
2022-09-28T04:16:19.130Z,98340.28
2022-09-28T04:18:47.956Z,98338.66
2022-09-28T04:21:19.543Z,98334.06
2022-09-28T04:23:49.152Z,98339.16
2022-09-28T04:26:28.546Z,98339.28
2022-09-28T04:29:17.575Z,98337.09
2022-09-28T04:31:55.853Z,98329.66
2022-09-28T04:34:24.370Z,98322.09
2022-09-28T04:36:52.016Z,98329.16
2022-09-28T04:39:20.101Z,98334.53
2022-09-28T04:41:49.489Z,98330.63
2022-09-28T04:44:17.156Z,98337.09
2022-09-28T04:46:44.778Z,98330.88
2022-09-28T04:49:12.665Z,98333.06
2022-09-28T04:51:40.327Z,98334.53
2022-09-28T04:54:07.953Z,98330.03
2022-09-28T04:56:35.589Z,98323.53
2022-09-28T04:59:03.198Z,98325.03
2022-09-28T05:01:31.369Z,98332.97
2022-09-28T05:03:59.130Z,98332.09
2022-09-28T05:06:30.643Z,98333.31
2022-09-28T05:08:58.391Z,98336.22
2022-09-28T05:11:26.012Z,98341.84
2022-09-28T05:13:53.709Z,98334.16
2022-09-28T05:16:25.278Z,98339.78
2022-09-28T05:18:58.393Z,98343.28
2022-09-28T05:21:29.388Z,98334.53
2022-09-28T05:23:58.410Z,98349.53
2022-09-28T05:26:26.915Z,98354.97
2022-09-28T05:28:55.584Z,98355.19
2022-09-28T05:31:23.324Z,98354.38
2022-09-28T05:33:51.916Z,98365.09
2022-09-28T05:36:19.982Z,98360.94
2022-09-28T05:38:48.518Z,98365.72
2022-09-28T05:41:17.064Z,98362.06
2022-09-28T05:43:45.888Z,98356.47
2022-09-28T05:46:13.638Z,98358.66
2022-09-28T05:48:42.246Z,98356.22
2022-09-28T05:51:10.468Z,98356.81
2022-09-28T05:53:39.113Z,98353.03
2022-09-28T05:56:07.714Z,98362.06
2022-09-28T05:58:35.433Z,98355.69
2022-09-28T06:01:04.212Z,98356.69
2022-09-28T06:03:31.928Z,98354.59
2022-09-28T06:06:03.379Z,98354.06
2022-09-28T06:08:33.126Z,98365.88
2022-09-28T06:11:02.393Z,98359.97
2022-09-28T06:13:30.234Z,98361.91
2022-09-28T06:15:58.875Z,98352.53
2022-09-28T06:18:26.618Z,98355.69
2022-09-28T06:20:54.327Z,98353.84
2022-09-28T06:23:22.008Z,98360.25
2022-09-28T06:25:49.695Z,98358.81
2022-09-28T06:28:18.152Z,98351.31
2022-09-28T06:30:48.288Z,98361.09
2022-09-28T06:33:16.514Z,98353.53
2022-09-28T06:35:44.232Z,98355.81
2022-09-28T06:38:12.230Z,98362.63
2022-09-28T06:40:40.207Z,98359.09
2022-09-28T06:43:15.118Z,98360.25
2022-09-28T06:45:44.219Z,98362.66
2022-09-28T06:48:12.477Z,98362.66
2022-09-28T06:50:43.734Z,98372.16
2022-09-28T06:53:15.490Z,98373.66
2022-09-28T06:55:49.207Z,98375.19
2022-09-28T06:58:21.716Z,98379.28
2022-09-28T07:00:52.720Z,98377.47
2022-09-28T07:03:22.981Z,98390.34
2022-09-28T07:05:54.541Z,98373.63
2022-09-28T07:08:26.060Z,98374.66
2022-09-28T07:10:58.422Z,98373.28
2022-09-28T07:16:16.377Z,98389.56
2022-09-28T07:18:44.038Z,98390.84
2022-09-28T07:21:22.501Z,98394.03
2022-09-28T07:23:54.330Z,98379.66
2022-09-28T07:26:24.582Z,98380.06
2022-09-28T07:28:53.929Z,98389.47
2022-09-28T07:31:21.589Z,98384.31
2022-09-28T07:33:51.848Z,98385.00
2022-09-28T07:36:21.043Z,98377.53
2022-09-28T07:38:48.694Z,98389.09
2022-09-28T07:41:21.779Z,98399.75
2022-09-28T07:43:49.993Z,98400.75
2022-09-28T07:46:20.827Z,98404.25
2022-09-28T07:48:51.832Z,98401.19
2022-09-28T07:51:21.364Z,98413.28
2022-09-28T07:53:48.977Z,98409.34
2022-09-28T07:56:18.362Z,98408.25
2022-09-28T07:58:48.725Z,98410.44
2022-09-28T08:01:16.910Z,98420.84
2022-09-28T08:03:48.693Z,98423.84
2022-09-28T08:06:18.007Z,98405.25
2022-09-28T08:08:46.046Z,98411.38
2022-09-28T08:11:17.957Z,98414.09
2022-09-28T08:13:46.700Z,98408.84
2022-09-28T08:16:16.223Z,98413.38
2022-09-28T08:18:43.941Z,98424.56
2022-09-28T08:21:30.261Z,98428.53
2022-09-28T08:23:57.926Z,98416.13
2022-09-28T08:26:25.888Z,98409.22
2022-09-28T08:28:53.555Z,98405.59
2022-09-28T08:31:21.179Z,98409.81
2022-09-28T08:33:54.483Z,98399.34
2022-09-28T08:36:22.307Z,98395.28
2022-09-28T08:38:50.724Z,98399.78
2022-09-28T08:42:06.862Z,98386.28
2022-09-28T08:44:57.365Z,98380.03
2022-09-28T08:47:53.468Z,98380.53
2022-09-28T08:50:32.315Z,98366.19
2022-09-28T08:53:53.535Z,98374.09
2022-09-28T08:56:47.701Z,98391.94
2022-09-28T08:59:32.129Z,98398.47
2022-09-28T09:02:03.982Z,98398.50
2022-09-28T09:04:34.493Z,98404.81
2022-09-28T09:07:43.421Z,98402.78
2022-09-28T09:11:18.920Z,98405.16
2022-09-28T09:14:03.254Z,98397.13
2022-09-28T09:17:07.482Z,98395.41
2022-09-28T09:19:55.323Z,98396.13
2022-09-28T09:23:01.281Z,98394.75
2022-09-28T09:25:41.178Z,98397.84
2022-09-28T09:28:36.286Z,98397.16
2022-09-28T09:31:26.747Z,98388.34
2022-09-28T09:34:32.581Z,98396.84
2022-09-28T09:37:27.946Z,98397.50
2022-09-28T09:40:26.352Z,98397.19
2022-09-28T09:43:21.320Z,98396.13
2022-09-28T09:46:27.971Z,98401.25
2022-09-28T09:49:27.329Z,98395.97
2022-09-28T09:52:06.792Z,98392.78
2022-09-28T09:55:02.775Z,98387.84
2022-09-28T09:57:40.831Z,98383.59
2022-09-28T10:00:15.521Z,98388.84
2022-09-28T10:02:48.585Z,98401.22
2022-09-28T10:05:27.808Z,98397.44
2022-09-28T10:08:15.552Z,98388.84
2022-09-28T10:11:19.454Z,98387.34
2022-09-28T10:13:50.381Z,98389.19
2022-09-28T10:16:20.010Z,98382.72
2022-09-28T10:18:49.911Z,98387.84
2022-09-28T10:21:21.795Z,98385.97
2022-09-28T10:24:00.578Z,98390.91
2022-09-28T10:26:40.228Z,98395.84
2022-09-28T10:29:25.420Z,98396.16
2022-09-28T10:31:54.824Z,98392.91
2022-09-28T10:34:31.206Z,98394.28
2022-09-28T10:37:10.192Z,98394.72
2022-09-28T10:39:54.174Z,98395.81
2022-09-28T10:42:32.847Z,98391.06
2022-09-28T10:45:25.371Z,98388.88
2022-09-28T10:47:53.052Z,98385.47
2022-09-28T10:50:26.760Z,98380.56
2022-09-28T10:52:54.906Z,98387.50
2022-09-28T10:55:37.006Z,98384.97
2022-09-28T10:58:33.152Z,98383.97
2022-09-28T11:01:13.736Z,98370.38
2022-09-28T11:03:58.886Z,98382.91
2022-09-28T11:06:37.271Z,98385.19
2022-09-28T11:09:30.862Z,98382.41
2022-09-28T11:12:04.224Z,98378.69
2022-09-28T11:14:42.451Z,98376.47
2022-09-28T11:17:41.718Z,98381.44
2022-09-28T11:20:27.799Z,98375.06
2022-09-28T11:23:00.859Z,98368.75
2022-09-28T11:25:31.453Z,98373.81
2022-09-28T11:28:05.734Z,98367.94
2022-09-28T11:30:44.625Z,98367.50
2022-09-28T11:33:33.876Z,98367.50
2022-09-28T11:36:13.444Z,98374.41
2022-09-28T11:39:06.388Z,98370.78
2022-09-28T11:42:01.692Z,98364.47
2022-09-28T11:44:48.953Z,98364.25
2022-09-28T11:47:57.703Z,98359.34
2022-09-28T11:50:47.878Z,98352.22
2022-09-28T11:53:31.716Z,98350.81
2022-09-28T11:56:36.569Z,98355.31
2022-09-28T11:59:15.026Z,98348.97
2022-09-28T12:02:25.744Z,98361.41
2022-09-28T12:05:03.104Z,98356.22
2022-09-28T12:07:55.061Z,98361.44
2022-09-28T12:11:09.973Z,98354.16
2022-09-28T12:13:48.314Z,98351.97
2022-09-28T12:17:07.328Z,98356.94
2022-09-28T12:20:20.162Z,98341.66
2022-09-28T12:23:07.496Z,98339.66
2022-09-28T12:25:46.987Z,98335.06
2022-09-28T12:28:40.227Z,98323.16
2022-09-28T12:31:39.226Z,98327.66
2022-09-28T12:34:10.447Z,98313.63
2022-09-28T12:37:33.338Z,98311.91
2022-09-28T12:40:42.280Z,98299.28
2022-09-28T12:43:54.659Z,98309.38
2022-09-28T12:47:06.168Z,98301.03
2022-09-28T12:53:16.501Z,98291.78
2022-09-28T12:56:01.143Z,98300.34
2022-09-28T12:59:08.374Z,98285.97
2022-09-28T13:02:19.696Z,98293.97
2022-09-28T13:05:36.589Z,98289.56
2022-09-28T13:08:31.134Z,98276.84
2022-09-28T13:12:09.900Z,98277.88
2022-09-28T13:15:08.760Z,98281.91
2022-09-28T13:18:03.898Z,98276.31
2022-09-28T13:21:26.374Z,98275.75
2022-09-28T13:24:14.361Z,98284.41
2022-09-28T13:26:48.809Z,98273.81
2022-09-28T13:29:20.398Z,98278.97
2022-09-28T13:31:57.776Z,98275.41
2022-09-28T13:34:33.014Z,98265.69
2022-09-28T13:37:21.981Z,98269.78
2022-09-28T13:40:06.226Z,98275.84
2022-09-28T13:43:09.864Z,98261.69
2022-09-28T13:45:54.066Z,98265.91
2022-09-28T13:49:13.274Z,98283.22
2022-09-28T13:52:06.287Z,98271.63
2022-09-28T13:55:17.284Z,98273.00
2022-09-28T13:57:58.193Z,98267.03
2022-09-28T14:00:46.533Z,98264.34
2022-09-28T14:03:28.897Z,98268.91
2022-09-28T14:06:33.775Z,98270.94
2022-09-28T14:09:16.067Z,98272.09
2022-09-28T14:11:53.934Z,98277.53
2022-09-28T14:14:30.072Z,98265.22
2022-09-28T14:17:27.351Z,98270.28
2022-09-28T14:20:11.419Z,98272.03
2022-09-28T14:23:37.837Z,98272.03
2022-09-28T14:27:27.940Z,98276.25
2022-09-28T14:30:11.585Z,98261.19
2022-09-28T14:32:50.708Z,98273.34
2022-09-28T14:35:42.058Z,98268.28
2022-09-28T14:38:49.736Z,98260.50
2022-09-28T14:41:18.172Z,98257.06
2022-09-28T14:43:45.770Z,98252.22
2022-09-28T14:46:17.376Z,98247.06
2022-09-28T14:48:54.572Z,98261.56
2022-09-28T14:51:33.073Z,98263.72
2022-09-28T14:54:22.378Z,98265.75
2022-09-28T14:56:52.685Z,98255.28
2022-09-28T14:59:36.292Z,98255.69
2022-09-28T15:02:22.954Z,98249.66
2022-09-28T15:05:14.118Z,98248.56
2022-09-28T15:07:52.290Z,98254.31
2022-09-28T15:10:49.654Z,98257.28
2022-09-28T15:13:28.790Z,98262.94
2022-09-28T15:16:11.614Z,98259.19
2022-09-28T15:19:22.928Z,98263.91
2022-09-28T15:21:51.409Z,98261.56
2022-09-28T15:24:35.599Z,98258.16
2022-09-28T15:27:16.878Z,98256.31
2022-09-28T15:29:59.838Z,98250.03
2022-09-28T15:32:31.810Z,98258.50
2022-09-28T15:35:20.679Z,98251.75
2022-09-28T15:37:52.210Z,98258.72
2022-09-28T15:40:51.092Z,98248.19
2022-09-28T15:43:34.704Z,98247.00
2022-09-28T15:46:13.847Z,98234.25
2022-09-28T15:48:59.548Z,98239.53
2022-09-28T15:51:28.773Z,98240.53
2022-09-28T15:54:21.719Z,98237.47
2022-09-28T15:57:02.051Z,98236.09
2022-09-28T15:59:37.127Z,98238.28
2022-09-28T16:02:19.543Z,98237.44
2022-09-28T16:04:58.950Z,98229.44
2022-09-28T16:07:41.769Z,98237.06
2022-09-28T16:10:12.295Z,98230.28
2022-09-28T16:12:48.699Z,98237.34
2022-09-28T16:15:31.680Z,98238.69
2022-09-28T16:18:18.344Z,98236.31
2022-09-28T16:20:56.441Z,98229.19
2022-09-28T16:23:34.165Z,98241.59
2022-09-28T16:26:07.952Z,98239.91
2022-09-28T16:28:42.589Z,98251.38
2022-09-28T16:31:17.245Z,98255.50
2022-09-28T16:34:02.415Z,98258.16
2022-09-28T16:36:45.404Z,98257.13
2022-09-28T16:39:17.561Z,98250.97
2022-09-28T16:42:03.248Z,98249.59
2022-09-28T16:44:36.539Z,98254.63
2022-09-28T16:47:05.139Z,98243.84
2022-09-28T16:49:34.063Z,98244.13
2022-09-28T16:52:03.428Z,98244.19
2022-09-28T16:54:51.181Z,98244.75
2022-09-28T16:57:18.842Z,98235.09
2022-09-28T16:59:47.324Z,98239.53
2022-09-28T17:02:46.725Z,98244.25
2022-09-28T17:05:19.446Z,98244.50
2022-09-28T17:08:05.068Z,98247.50
2022-09-28T17:11:12.601Z,98250.25
2022-09-28T17:13:35.265Z,98257.28
2022-09-28T17:16:11.458Z,98262.13
2022-09-28T17:18:40.670Z,98254.34
2022-09-28T17:21:20.732Z,98240.41
2022-09-28T17:23:50.627Z,98246.00
2022-09-28T17:26:34.692Z,98247.69
2022-09-28T17:29:03.080Z,98240.22
2022-09-28T17:31:31.218Z,98240.28
2022-09-28T17:33:58.981Z,98237.47
2022-09-28T17:36:27.122Z,98231.72
2022-09-28T17:38:54.740Z,98223.53
2022-09-28T17:41:22.414Z,98219.63
2022-09-28T17:43:50.066Z,98218.81
2022-09-28T17:46:33.665Z,98215.13
2022-09-28T17:49:05.022Z,98215.28
2022-09-28T17:51:39.636Z,98217.84
2022-09-28T17:54:11.241Z,98215.72
2022-09-28T17:56:42.738Z,98222.66
2022-09-28T17:59:17.799Z,98228.91
2022-09-28T18:01:48.425Z,98231.25
2022-09-28T18:04:39.633Z,98233.88
2022-09-28T18:07:05.314Z,98235.94
2022-09-28T18:09:32.938Z,98231.75
2022-09-28T18:12:05.404Z,98230.91
2022-09-28T18:14:33.104Z,98230.41
2022-09-28T18:17:00.771Z,98233.38
2022-09-28T18:19:31.973Z,98239.81
2022-09-28T18:22:01.491Z,98243.22
2022-09-28T18:24:29.742Z,98237.88
2022-09-28T18:26:57.372Z,98235.94
2022-09-28T18:29:31.014Z,98243.22
2022-09-28T18:32:02.607Z,98250.16
2022-09-28T18:34:31.270Z,98252.84
2022-09-28T18:36:58.941Z,98246.44
2022-09-28T18:39:26.830Z,98247.53
2022-09-28T18:41:54.622Z,98259.84
2022-09-28T18:44:22.572Z,98251.63
2022-09-28T18:46:51.727Z,98263.63
2022-09-28T18:49:19.510Z,98260.59
2022-09-28T18:51:47.659Z,98269.22
2022-09-28T18:54:17.234Z,98270.75
2022-09-28T18:56:44.871Z,98272.34
2022-09-28T18:59:12.673Z,98271.22
2022-09-28T19:01:42.937Z,98272.97
2022-09-28T19:04:12.078Z,98268.19
2022-09-28T19:06:42.928Z,98265.59
2022-09-28T19:09:11.228Z,98277.38
2022-09-28T19:11:42.412Z,98276.66
2022-09-28T19:14:15.751Z,98271.53
2022-09-28T19:16:45.606Z,98272.75
2022-09-28T19:19:20.161Z,98266.91
2022-09-28T19:21:50.263Z,98275.41
2022-09-28T19:24:19.961Z,98282.66
2022-09-28T19:26:49.670Z,98273.19
2022-09-28T19:29:20.662Z,98274.19
2022-09-28T19:31:52.005Z,98273.31
2022-09-28T19:34:24.460Z,98280.38
2022-09-28T19:36:53.106Z,98279.84
2022-09-28T19:39:21.664Z,98277.84
2022-09-28T19:41:54.431Z,98280.81
2022-09-28T19:44:27.367Z,98281.81
2022-09-28T19:47:07.606Z,98287.78
2022-09-28T19:49:40.437Z,98286.34
2022-09-28T19:52:17.478Z,98288.94
2022-09-28T19:54:56.941Z,98284.53
2022-09-28T19:57:29.341Z,98274.06
2022-09-28T20:00:03.108Z,98283.25
2022-09-28T20:02:34.986Z,98277.00
2022-09-28T20:05:04.352Z,98265.63
2022-09-28T20:07:36.252Z,98261.44
2022-09-28T20:10:06.530Z,98270.94
2022-09-28T20:12:35.285Z,98264.84
2022-09-28T20:15:05.413Z,98274.47
2022-09-28T20:17:36.042Z,98266.25
2022-09-28T20:20:05.937Z,98262.00
2022-09-28T20:22:35.408Z,98271.06
2022-09-28T20:25:04.298Z,98265.41
2022-09-28T20:27:32.943Z,98257.78
2022-09-28T20:30:01.724Z,98256.78
2022-09-28T20:32:35.422Z,98259.47
2022-09-28T20:35:04.470Z,98253.66
2022-09-28T20:37:34.222Z,98252.66
2022-09-28T20:40:03.013Z,98251.53
2022-09-28T20:42:32.840Z,98248.97
2022-09-28T20:45:01.592Z,98250.97
2022-09-28T20:47:30.218Z,98252.38
2022-09-28T20:49:59.608Z,98248.25
2022-09-28T20:52:28.215Z,98250.53
2022-09-28T20:54:56.760Z,98244.69
2022-09-28T20:57:25.364Z,98247.72
2022-09-28T20:59:55.037Z,98244.56
2022-09-28T21:02:22.998Z,98247.16
2022-09-28T21:04:50.766Z,98244.16
2022-09-28T21:07:20.311Z,98239.91
2022-09-28T21:09:50.624Z,98242.03
2022-09-28T21:12:19.359Z,98236.66
2022-09-28T21:14:47.062Z,98236.81
2022-09-28T21:17:16.553Z,98231.41
2022-09-28T21:19:44.204Z,98226.88
2022-09-28T21:22:13.760Z,98230.41
2022-09-28T21:24:41.512Z,98230.53
2022-09-28T21:27:09.209Z,98227.59
2022-09-28T21:29:38.597Z,98220.66
2022-09-28T21:32:08.315Z,98216.09
2022-09-28T21:34:36.962Z,98219.81
2022-09-28T21:37:05.516Z,98216.78
2022-09-28T21:39:34.245Z,98228.31
2022-09-28T21:42:03.750Z,98219.22
2022-09-28T21:44:31.404Z,98216.91
2022-09-28T21:46:59.949Z,98212.16
2022-09-28T21:49:29.528Z,98208.16
2022-09-28T21:51:58.009Z,98208.75
2022-09-28T21:54:26.522Z,98211.56
2022-09-28T21:56:54.188Z,98217.25
2022-09-28T21:59:21.902Z,98213.28
2022-09-28T22:01:50.475Z,98211.56
2022-09-28T22:04:20.483Z,98204.66
2022-09-28T22:06:49.404Z,98207.88
2022-09-28T22:09:17.957Z,98201.38
2022-09-28T22:11:45.687Z,98197.09
2022-09-28T22:14:14.268Z,98192.03
2022-09-28T22:16:42.071Z,98193.44
2022-09-28T22:19:10.589Z,98200.22
2022-09-28T22:21:39.165Z,98196.97
2022-09-28T22:24:09.647Z,98204.06
2022-09-28T22:26:39.600Z,98198.69
2022-09-28T22:29:10.576Z,98200.25
2022-09-28T22:31:41.594Z,98190.63
2022-09-28T22:34:10.144Z,98193.56
2022-09-28T22:36:38.600Z,98199.09
2022-09-28T22:39:06.497Z,98203.19
2022-09-28T22:41:34.325Z,98209.31
2022-09-28T22:44:02.867Z,98204.63
2022-09-28T22:46:33.735Z,98206.59
2022-09-28T22:49:02.480Z,98205.59
2022-09-28T22:51:33.093Z,98206.47
2022-09-28T22:54:01.320Z,98194.03
2022-09-28T22:56:30.358Z,98192.47
2022-09-28T22:58:59.370Z,98193.03
2022-09-28T23:01:30.765Z,98196.00
2022-09-28T23:03:59.740Z,98193.03
2022-09-28T23:06:30.950Z,98201.69
2022-09-28T23:09:01.044Z,98209.00
2022-09-28T23:11:30.328Z,98204.63
2022-09-28T23:13:59.820Z,98198.00
2022-09-28T23:16:28.009Z,98187.66
2022-09-28T23:18:57.298Z,98192.88
2022-09-28T23:21:28.220Z,98190.06
2022-09-28T23:24:01.714Z,98192.16
2022-09-28T23:26:34.486Z,98179.44
2022-09-28T23:29:04.321Z,98192.88
2022-09-28T23:31:34.173Z,98196.84
2022-09-28T23:34:06.115Z,98190.34
2022-09-28T23:36:34.996Z,98186.78
2022-09-28T23:39:04.876Z,98176.72
2022-09-28T23:41:33.381Z,98179.59
2022-09-28T23:44:02.141Z,98177.03
2022-09-28T23:46:30.089Z,98194.00
2022-09-28T23:48:58.549Z,98191.63
2022-09-28T23:51:26.300Z,98184.97
2022-09-28T23:53:54.034Z,98185.50
2022-09-28T23:56:22.620Z,98184.41
2022-09-28T23:58:50.440Z,98184.66
